Time;durP1;ratioP1;P1;durP2;ratioP2;P2;SDS_P1;SDS_P2;PMS_P1;PMS_P2;Temp;Humidity;BMP_temperature;BMP_pressure;BME280_temperature;BME280_humidity;BME280_pressure;Samples;Min_cycle;Max_cycle;Signal;HPM_P1;HPM_P2
2022/01/27 00:00:36;;;;;;;32.97;14.90;;;;;;;;;;5086969;28;20572;-77
2022/01/27 00:05:32;;;;;;;39.25;15.65;;;;;;;;;;5105144;27;20145;-80
2022/01/27 00:13:02;;;;;;;34.67;15.85;;;;;;;;;;5109332;27;20044;-77
2022/01/27 00:15:32;;;;;;;36.67;16.52;;;;;;;;;;5090657;27;20121;-77
2022/01/27 00:18:02;;;;;;;38.50;16.37;;;;;;;;;;5082529;28;20056;-77
2022/01/27 00:20:29;;;;;;;35.20;16.05;;;;;;;;;;5108174;27;20258;-80
2022/01/27 00:22:56;;;;;;;41.10;15.82;;;;;;;;;;5105340;27;20047;-77
2022/01/27 00:25:22;;;;;;;29.17;14.07;;;;;;;;;;5108342;27;20189;-77
2022/01/27 00:27:48;;;;;;;33.67;16.02;;;;;;;;;;5108092;27;20102;-78
2022/01/27 00:30:15;;;;;;;34.28;15.00;;;;;;;;;;5087993;28;20563;-77
2022/01/27 00:32:41;;;;;;;31.38;14.77;;;;;;;;;;5108325;27;20122;-79
2022/01/27 00:35:08;;;;;;;33.72;14.95;;;;;;;;;;5108889;27;20052;-78
2022/01/27 00:37:34;;;;;;;31.52;14.70;;;;;;;;;;5107740;27;20126;-77
2022/01/27 00:40:01;;;;;;;33.20;13.85;;;;;;;;;;5084244;27;20052;-78
2022/01/27 00:42:28;;;;;;;35.05;15.27;;;;;;;;;;5108327;27;20089;-79
2022/01/27 00:44:55;;;;;;;30.10;13.55;;;;;;;;;;5108181;27;20595;-77
2022/01/27 00:47:22;;;;;;;33.38;14.48;;;;;;;;;;5090051;28;20058;-82
2022/01/27 00:49:48;;;;;;;32.70;13.82;;;;;;;;;;5108034;27;20147;-78
2022/01/27 00:52:22;;;;;;;32.67;13.77;;;;;;;;;;5090952;27;20080;-78
2022/01/27 00:54:51;;;;;;;34.50;14.40;;;;;;;;;;5108442;27;20056;-78
2022/01/27 00:57:37;;;;;;;30.58;12.98;;;;;;;;;;5108735;27;20499;-78
2022/01/27 01:00:04;;;;;;;32.42;13.45;;;;;;;;;;5107903;27;20048;-78
2022/01/27 01:02:49;;;;;;;33.13;13.60;;;;;;;;;;5088393;27;20056;-79
2022/01/27 01:07:55;;;;;;;34.33;15.13;;;;;;;;;;5107262;27;20080;-81
2022/01/27 01:15:39;;;;;;;31.60;12.70;;;;;;;;;;5110148;27;20147;-78
2022/01/27 01:18:41;;;;;;;32.22;13.90;;;;;;;;;;5094473;28;20048;-78
2022/01/27 01:29:28;;;;;;;27.00;12.75;;;;;;;;;;5107733;27;20099;-78
2022/01/27 01:34:29;;;;;;;28.80;12.45;;;;;;;;;;5099557;27;20048;-80
2022/01/27 01:37:02;;;;;;;30.77;12.55;;;;;;;;;;5106543;27;20469;-77
2022/01/27 01:39:30;;;;;;;28.73;13.35;;;;;;;;;;5092157;28;20048;-78
2022/01/27 01:41:57;;;;;;;27.38;12.13;;;;;;;;;;5107829;27;20052;-77
2022/01/27 01:44:24;;;;;;;31.13;13.82;;;;;;;;;;5111256;27;20059;-78
2022/01/27 01:46:51;;;;;;;31.77;13.95;;;;;;;;;;5107094;27;20054;-78
2022/01/27 01:49:17;;;;;;;35.67;14.48;;;;;;;;;;5102740;27;20056;-80
2022/01/27 01:51:44;;;;;;;33.85;13.43;;;;;;;;;;5094874;27;20052;-77
2022/01/27 01:54:11;;;;;;;29.52;13.38;;;;;;;;;;5094099;27;20056;-77
2022/01/27 01:56:38;;;;;;;31.25;13.27;;;;;;;;;;5110792;27;20114;-79
2022/01/27 01:59:07;;;;;;;32.00;14.57;;;;;;;;;;5118172;27;20057;-78
2022/01/27 02:01:35;;;;;;;29.58;13.40;;;;;;;;;;5116049;27;20517;-77
2022/01/27 02:04:06;;;;;;;35.30;14.18;;;;;;;;;;5103073;27;20110;-77
2022/01/27 02:06:55;;;;;;;30.40;13.27;;;;;;;;;;5108880;27;20079;-80
2022/01/27 02:20:10;;;;;;;33.88;14.70;;;;;;;;;;5109317;27;20060;-80
2022/01/27 02:22:36;;;;;;;32.03;15.00;;;;;;;;;;5095030;27;20048;-78
2022/01/27 02:25:03;;;;;;;33.53;14.18;;;;;;;;;;5092000;28;20056;-80
2022/01/27 02:27:30;;;;;;;43.00;14.23;;;;;;;;;;5088751;27;20056;-78
2022/01/27 02:29:56;;;;;;;36.08;14.82;;;;;;;;;;5096429;27;20087;-77
2022/01/27 02:32:24;;;;;;;32.10;14.70;;;;;;;;;;5109814;27;20056;-80
2022/01/27 02:34:50;;;;;;;32.55;14.63;;;;;;;;;;5117934;27;20125;-77
2022/01/27 02:37:17;;;;;;;33.35;14.30;;;;;;;;;;5089291;28;20110;-77
2022/01/27 02:39:43;;;;;;;34.80;14.73;;;;;;;;;;5099965;27;20083;-77
2022/01/27 02:42:14;;;;;;;39.65;15.35;;;;;;;;;;5110258;27;20102;-80
2022/01/27 02:44:44;;;;;;;37.40;15.45;;;;;;;;;;5110023;27;20055;-77
2022/01/27 02:47:14;;;;;;;28.33;15.13;;;;;;;;;;5090066;27;20101;-77
2022/01/27 02:49:41;;;;;;;33.17;13.93;;;;;;;;;;5110054;27;20047;-77
2022/01/27 02:52:08;;;;;;;32.78;14.57;;;;;;;;;;5112764;27;20059;-79
2022/01/27 02:54:34;;;;;;;33.75;14.10;;;;;;;;;;5105547;27;20418;-78
2022/01/27 02:57:20;;;;;;;32.70;14.50;;;;;;;;;;5109570;27;20056;-80
2022/01/27 02:59:47;;;;;;;37.78;14.85;;;;;;;;;;5109822;27;20059;-78
2022/01/27 03:02:13;;;;;;;33.05;14.77;;;;;;;;;;5109783;27;20048;-77
2022/01/27 03:04:40;;;;;;;35.83;15.18;;;;;;;;;;5089214;27;20062;-77
2022/01/27 03:07:07;;;;;;;35.25;14.70;;;;;;;;;;5112436;27;20052;-78
2022/01/27 03:09:34;;;;;;;33.80;15.40;;;;;;;;;;5107907;27;20052;-81
2022/01/27 03:12:07;;;;;;;30.95;13.57;;;;;;;;;;5089748;28;20056;-77
2022/01/27 03:14:34;;;;;;;34.53;14.52;;;;;;;;;;5109321;27;20052;-78
2022/01/27 03:17:01;;;;;;;34.28;14.13;;;;;;;;;;5108552;27;20113;-77
2022/01/27 03:19:28;;;;;;;37.22;14.48;;;;;;;;;;5098935;27;20141;-79
2022/01/27 03:21:55;;;;;;;42.72;14.88;;;;;;;;;;5091748;27;20584;-77
2022/01/27 03:24:23;;;;;;;38.58;14.25;;;;;;;;;;5096108;28;20142;-81
2022/01/27 03:26:50;;;;;;;37.88;15.18;;;;;;;;;;5098742;27;20117;-80
2022/01/27 03:29:18;;;;;;;35.53;14.52;;;;;;;;;;5109480;27;20110;-78
2022/01/27 03:31:45;;;;;;;36.58;14.80;;;;;;;;;;5104010;27;20086;-82
2022/01/27 03:34:12;;;;;;;31.15;14.43;;;;;;;;;;5109672;27;20060;-77
2022/01/27 03:36:38;;;;;;;39.25;15.43;;;;;;;;;;5090677;27;20531;-79
2022/01/27 03:39:05;;;;;;;32.15;15.05;;;;;;;;;;5106958;27;20056;-80
2022/01/27 03:41:34;;;;;;;31.98;14.13;;;;;;;;;;5097576;28;20056;-78
2022/01/27 03:44:00;;;;;;;31.35;14.40;;;;;;;;;;5091001;27;20055;-78
2022/01/27 03:46:27;;;;;;;36.33;15.57;;;;;;;;;;5093005;27;20075;-82
2022/01/27 03:48:53;;;;;;;33.95;14.52;;;;;;;;;;5111823;27;20053;-78
2022/01/27 03:51:20;;;;;;;33.10;14.88;;;;;;;;;;5109959;27;20121;-78
2022/01/27 03:53:46;;;;;;;37.60;15.43;;;;;;;;;;5116625;27;20059;-77
2022/01/27 03:56:13;;;;;;;32.60;15.40;;;;;;;;;;5110164;27;20643;-78
2022/01/27 03:58:39;;;;;;;35.83;15.38;;;;;;;;;;5115506;27;20510;-78
2022/01/27 04:01:05;;;;;;;33.72;14.52;;;;;;;;;;5108906;27;20125;-80
2022/01/27 04:03:35;;;;;;;38.10;15.50;;;;;;;;;;5084971;28;20056;-80
2022/01/27 04:06:08;;;;;;;33.03;14.73;;;;;;;;;;5097513;27;20056;-77
2022/01/27 04:08:37;;;;;;;35.15;14.65;;;;;;;;;;5108837;27;20048;-78
2022/01/27 04:11:04;;;;;;;35.15;14.45;;;;;;;;;;5098508;27;20052;-77
2022/01/27 04:13:30;;;;;;;38.72;15.50;;;;;;;;;;5107165;27;20525;-79
2022/01/27 04:15:57;;;;;;;31.67;14.75;;;;;;;;;;5090263;28;20544;-78
2022/01/27 04:18:23;;;;;;;30.45;14.50;;;;;;;;;;5117432;27;20101;-78
2022/01/27 04:20:50;;;;;;;43.88;15.30;;;;;;;;;;5085743;28;20047;-77
2022/01/27 04:23:18;;;;;;;35.13;14.10;;;;;;;;;;5094096;27;20106;-78
2022/01/27 04:25:47;;;;;;;34.22;13.40;;;;;;;;;;5091842;28;20513;-77
2022/01/27 04:28:20;;;;;;;38.25;14.75;;;;;;;;;;5093148;27;20165;-78
2022/01/27 04:30:48;;;;;;;32.50;14.18;;;;;;;;;;5084334;28;20057;-77
2022/01/27 04:33:14;;;;;;;32.97;13.98;;;;;;;;;;5113787;27;20136;-78
2022/01/27 04:35:47;;;;;;;34.78;13.60;;;;;;;;;;5097279;28;20097;-77
2022/01/27 04:40:57;;;;;;;35.88;13.77;;;;;;;;;;5110859;27;20048;-78
2022/01/27 04:48:40;;;;;;;36.03;13.20;;;;;;;;;;5115679;27;20056;-78
2022/01/27 04:51:09;;;;;;;31.25;13.05;;;;;;;;;;5103623;27;20101;-80
2022/01/27 04:53:48;;;;;;;35.10;13.73;;;;;;;;;;5090661;27;20531;-78
2022/01/27 04:56:17;;;;;;;37.75;14.48;;;;;;;;;;5093135;28;20059;-77
2022/01/27 04:58:46;;;;;;;35.15;13.52;;;;;;;;;;5107884;27;20082;-78
2022/01/27 05:01:14;;;;;;;35.05;12.65;;;;;;;;;;5109725;27;20066;-79
2022/01/27 05:03:49;;;;;;;33.35;12.75;;;;;;;;;;5107683;27;20064;-79
2022/01/27 05:06:16;;;;;;;31.90;12.23;;;;;;;;;;5114313;27;20051;-78
2022/01/27 05:08:43;;;;;;;35.65;13.45;;;;;;;;;;5109884;27;20054;-78
2022/01/27 05:11:16;;;;;;;34.97;12.60;;;;;;;;;;5087083;28;20101;-82
2022/01/27 05:13:56;;;;;;;34.60;12.52;;;;;;;;;;5110216;27;20079;-78
2022/01/27 05:16:23;;;;;;;28.33;12.57;;;;;;;;;;5111595;28;20052;-78
2022/01/27 05:18:49;;;;;;;27.95;12.05;;;;;;;;;;5092523;28;20147;-80
2022/01/27 05:21:16;;;;;;;33.40;13.07;;;;;;;;;;5118380;27;20055;-80
2022/01/27 05:23:42;;;;;;;31.15;11.77;;;;;;;;;;5111403;27;20101;-78
2022/01/27 05:26:08;;;;;;;33.97;12.70;;;;;;;;;;5111287;27;20056;-78
2022/01/27 05:28:35;;;;;;;29.73;12.15;;;;;;;;;;5092283;27;20515;-77
2022/01/27 05:31:01;;;;;;;30.48;11.77;;;;;;;;;;5091959;28;20551;-78
2022/01/27 05:33:28;;;;;;;33.88;12.70;;;;;;;;;;5112298;27;20357;-78
2022/01/27 05:35:54;;;;;;;36.00;12.75;;;;;;;;;;5110241;27;20139;-80
2022/01/27 05:38:21;;;;;;;31.85;12.77;;;;;;;;;;5111670;27;20053;-78
2022/01/27 05:40:47;;;;;;;32.33;13.25;;;;;;;;;;5092377;28;20518;-80
2022/01/27 05:43:14;;;;;;;32.97;11.55;;;;;;;;;;5118706;27;20580;-77
2022/01/27 05:45:41;;;;;;;27.77;11.88;;;;;;;;;;5108684;27;20101;-77
2022/01/27 05:48:08;;;;;;;31.52;12.32;;;;;;;;;;5110242;27;20056;-78
2022/01/27 05:50:34;;;;;;;32.05;11.80;;;;;;;;;;5110045;27;20068;-77
2022/01/27 05:53:01;;;;;;;30.00;12.23;;;;;;;;;;5092233;28;20102;-77
2022/01/27 05:55:27;;;;;;;30.40;12.27;;;;;;;;;;5110999;27;20052;-78
2022/01/27 05:57:54;;;;;;;28.35;11.32;;;;;;;;;;5110982;27;20162;-78
2022/01/27 06:00:21;;;;;;;28.40;11.65;;;;;;;;;;5112327;27;20481;-77
2022/01/27 06:02:47;;;;;;;31.75;11.25;;;;;;;;;;5111101;27;20048;-78
2022/01/27 06:05:14;;;;;;;29.65;10.95;;;;;;;;;;5111080;27;20059;-77
2022/01/27 06:07:40;;;;;;;31.30;10.55;;;;;;;;;;5111088;27;20090;-80
2022/01/27 06:10:06;;;;;;;27.48;11.10;;;;;;;;;;5109219;27;20056;-79
2022/01/27 06:12:33;;;;;;;33.33;11.40;;;;;;;;;;5106737;27;20103;-80
2022/01/27 06:14:59;;;;;;;30.60;11.20;;;;;;;;;;5092254;27;20044;-77
2022/01/27 06:17:26;;;;;;;26.27;10.10;;;;;;;;;;5109460;27;20044;-79
2022/01/27 06:19:55;;;;;;;24.52;10.20;;;;;;;;;;5111654;27;20180;-77
2022/01/27 06:22:21;;;;;;;28.00;10.45;;;;;;;;;;5110206;27;20568;-78
2022/01/27 06:24:47;;;;;;;32.05;11.50;;;;;;;;;;5109379;27;20052;-79
2022/01/27 06:27:14;;;;;;;30.75;10.52;;;;;;;;;;5092486;28;20503;-77
2022/01/27 06:29:41;;;;;;;35.70;11.18;;;;;;;;;;5110428;27;20059;-77
2022/01/27 06:32:08;;;;;;;31.33;11.38;;;;;;;;;;5111208;27;20573;-77
2022/01/27 06:34:34;;;;;;;25.90;10.60;;;;;;;;;;5109787;27;20127;-78
2022/01/27 06:37:00;;;;;;;27.40;10.02;;;;;;;;;;5104476;27;20105;-77
2022/01/27 06:39:27;;;;;;;32.65;10.35;;;;;;;;;;5110745;27;20540;-78
2022/01/27 06:41:54;;;;;;;33.20;11.27;;;;;;;;;;5092489;27;20052;-78
2022/01/27 06:44:20;;;;;;;31.77;11.40;;;;;;;;;;5111679;27;20056;-77
2022/01/27 06:46:47;;;;;;;28.33;10.82;;;;;;;;;;5109109;27;20047;-78
2022/01/27 06:49:16;;;;;;;26.90;10.90;;;;;;;;;;5114873;27;20088;-77
2022/01/27 06:51:46;;;;;;;31.63;10.13;;;;;;;;;;5092651;27;20078;-79
2022/01/27 06:54:12;;;;;;;27.40;9.60;;;;;;;;;;5117468;27;20068;-80
2022/01/27 06:56:39;;;;;;;29.80;10.38;;;;;;;;;;5108255;27;20102;-80
2022/01/27 06:59:06;;;;;;;30.60;10.55;;;;;;;;;;5101609;27;20058;-77
2022/01/27 07:01:32;;;;;;;33.40;11.82;;;;;;;;;;5104270;27;20060;-78
2022/01/27 07:03:59;;;;;;;29.80;10.65;;;;;;;;;;5107009;27;20055;-80
2022/01/27 07:06:25;;;;;;;34.15;11.18;;;;;;;;;;5104113;27;20084;-78
2022/01/27 07:08:52;;;;;;;35.50;11.63;;;;;;;;;;5089066;27;20511;-77
2022/01/27 07:11:18;;;;;;;40.65;12.30;;;;;;;;;;5104051;27;20462;-80
2022/01/27 07:13:45;;;;;;;37.35;12.18;;;;;;;;;;5106960;27;20076;-81
2022/01/27 07:16:14;;;;;;;39.83;14.20;;;;;;;;;;5106153;27;20091;-78
2022/01/27 07:18:40;;;;;;;34.83;12.18;;;;;;;;;;5108318;27;20091;-78
2022/01/27 07:21:07;;;;;;;38.85;13.75;;;;;;;;;;5120002;27;20056;-78
2022/01/27 07:23:33;;;;;;;36.58;12.05;;;;;;;;;;5112074;27;20523;-78
2022/01/27 07:26:00;;;;;;;35.83;11.57;;;;;;;;;;5090958;27;20079;-79
2022/01/27 07:28:26;;;;;;;35.45;13.25;;;;;;;;;;5108973;27;20514;-80
2022/01/27 07:30:53;;;;;;;32.80;12.35;;;;;;;;;;5095172;27;20565;-79
2022/01/27 07:33:19;;;;;;;31.42;11.93;;;;;;;;;;5100860;27;20522;-79
2022/01/27 07:35:45;;;;;;;34.10;12.50;;;;;;;;;;5107375;27;20105;-79
2022/01/27 07:38:12;;;;;;;43.40;14.35;;;;;;;;;;5101548;28;20106;-78
2022/01/27 07:40:38;;;;;;;36.33;13.45;;;;;;;;;;5108639;27;20048;-78
2022/01/27 07:43:13;;;;;;;37.33;13.77;;;;;;;;;;5088989;28;20059;-79
2022/01/27 07:45:40;;;;;;;43.08;13.95;;;;;;;;;;5092412;28;20105;-77
2022/01/27 07:48:06;;;;;;;35.08;13.88;;;;;;;;;;5107146;28;20048;-77
2022/01/27 07:50:33;;;;;;;38.80;13.38;;;;;;;;;;5089660;27;20048;-77
2022/01/27 07:53:00;;;;;;;41.42;14.48;;;;;;;;;;5092915;28;20059;-79
2022/01/27 07:55:26;;;;;;;41.42;13.20;;;;;;;;;;5111347;27;20125;-77
2022/01/27 07:57:53;;;;;;;38.88;13.13;;;;;;;;;;5097202;27;20096;-79
2022/01/27 08:00:19;;;;;;;30.55;13.20;;;;;;;;;;5083283;28;20049;-78
2022/01/27 08:02:46;;;;;;;38.38;13.98;;;;;;;;;;5104827;27;20055;-80
2022/01/27 08:05:12;;;;;;;39.75;13.98;;;;;;;;;;5088187;28;20135;-81
2022/01/27 08:07:39;;;;;;;36.80;13.43;;;;;;;;;;5107785;27;20052;-78
2022/01/27 08:10:05;;;;;;;46.20;14.77;;;;;;;;;;5091704;28;20057;-77
2022/01/27 08:12:37;;;;;;;47.90;14.93;;;;;;;;;;5108653;28;20106;-77
2022/01/27 08:15:04;;;;;;;41.17;13.68;;;;;;;;;;5107607;28;20648;-78
2022/01/27 08:17:31;;;;;;;44.30;13.82;;;;;;;;;;5080442;28;20048;-80
2022/01/27 08:19:57;;;;;;;47.67;14.98;;;;;;;;;;5089278;28;20071;-79
2022/01/27 08:22:23;;;;;;;42.03;14.27;;;;;;;;;;5094369;28;20109;-79
2022/01/27 08:24:50;;;;;;;43.80;14.45;;;;;;;;;;5098521;27;20048;-80
2022/01/27 08:27:19;;;;;;;40.78;13.90;;;;;;;;;;5089788;28;20882;-78
2022/01/27 08:30:00;;;;;;;43.05;14.77;;;;;;;;;;5099855;27;20052;-78
2022/01/27 08:33:05;;;;;;;41.53;13.60;;;;;;;;;;5095613;28;20090;-78
2022/01/27 08:35:20;;;;;;;38.65;13.57;;;;;;;;;;5098640;28;20140;-77
2022/01/27 08:37:47;;;;;;;38.70;13.48;;;;;;;;;;5087608;28;20067;-77
2022/01/27 08:40:14;;;;;;;36.55;13.43;;;;;;;;;;5101342;27;20890;-78
2022/01/27 08:43:00;;;;;;;37.53;13.50;;;;;;;;;;5091873;27;20058;-78
2022/01/27 08:45:27;;;;;;;32.65;12.40;;;;;;;;;;5108343;27;20098;-77
2022/01/27 08:47:55;;;;;;;36.53;12.88;;;;;;;;;;5086583;28;20060;-79
2022/01/27 08:50:24;;;;;;;43.65;13.73;;;;;;;;;;5103521;28;20056;-77
2022/01/27 08:52:51;;;;;;;40.28;13.05;;;;;;;;;;5095714;28;20118;-81
2022/01/27 08:55:20;;;;;;;35.05;11.05;;;;;;;;;;5105471;28;20558;-78
2022/01/27 08:57:46;;;;;;;39.35;12.00;;;;;;;;;;5111407;27;20052;-83
2022/01/27 09:00:13;;;;;;;34.13;12.27;;;;;;;;;;5093725;27;20124;-80
2022/01/27 09:02:40;;;;;;;30.38;10.77;;;;;;;;;;5103937;27;20055;-77
2022/01/27 09:05:06;;;;;;;32.63;11.95;;;;;;;;;;5090769;28;20118;-77
2022/01/27 09:07:34;;;;;;;36.35;11.77;;;;;;;;;;5094611;28;20052;-78
2022/01/27 09:10:00;;;;;;;33.67;12.48;;;;;;;;;;5100326;27;20577;-80
2022/01/27 09:12:27;;;;;;;29.10;11.60;;;;;;;;;;5090014;28;20515;-77
2022/01/27 09:14:54;;;;;;;29.23;11.45;;;;;;;;;;5089041;27;20587;-80
2022/01/27 09:17:25;;;;;;;33.25;11.88;;;;;;;;;;5097559;27;20052;-79
2022/01/27 09:19:52;;;;;;;34.58;12.65;;;;;;;;;;5107247;27;20109;-77
2022/01/27 09:22:19;;;;;;;34.70;12.95;;;;;;;;;;5097546;27;20827;-78
2022/01/27 09:24:57;;;;;;;36.17;12.27;;;;;;;;;;5096175;27;20056;-81
2022/01/27 09:27:25;;;;;;;33.33;12.82;;;;;;;;;;5080966;28;20239;-78
2022/01/27 09:29:55;;;;;;;34.65;13.38;;;;;;;;;;5096701;27;20536;-79
2022/01/27 09:32:24;;;;;;;36.60;13.35;;;;;;;;;;5087201;27;20056;-78
2022/01/27 09:34:54;;;;;;;37.38;12.48;;;;;;;;;;5097496;28;20376;-79
2022/01/27 09:37:20;;;;;;;31.02;13.52;;;;;;;;;;5082130;28;20052;-81
2022/01/27 09:39:46;;;;;;;41.58;14.27;;;;;;;;;;5088806;28;20080;-78
2022/01/27 09:42:14;;;;;;;40.42;14.13;;;;;;;;;;5087199;28;20060;-83
2022/01/27 09:44:43;;;;;;;35.58;14.50;;;;;;;;;;5100851;28;20049;-78
2022/01/27 09:47:14;;;;;;;43.80;14.18;;;;;;;;;;5102633;28;20193;-79
2022/01/27 09:49:48;;;;;;;32.72;14.02;;;;;;;;;;5089017;28;20060;-78
2022/01/27 09:52:15;;;;;;;38.60;15.63;;;;;;;;;;5088772;28;20507;-84
2022/01/27 09:54:45;;;;;;;38.83;14.27;;;;;;;;;;5106737;28;20131;-78
2022/01/27 09:57:15;;;;;;;39.60;15.20;;;;;;;;;;5105173;28;20165;-78
2022/01/27 09:59:42;;;;;;;42.78;15.68;;;;;;;;;;5085608;28;20377;-78
2022/01/27 10:02:09;;;;;;;47.33;17.80;;;;;;;;;;5090303;28;20142;-79
2022/01/27 10:04:42;;;;;;;36.88;15.00;;;;;;;;;;5090544;28;20472;-78
2022/01/27 10:07:09;;;;;;;36.63;15.35;;;;;;;;;;5102475;27;20063;-78
2022/01/27 10:09:36;;;;;;;45.47;15.70;;;;;;;;;;5090497;28;20059;-78
2022/01/27 10:12:04;;;;;;;41.08;16.35;;;;;;;;;;5079389;28;20133;-82
2022/01/27 10:14:35;;;;;;;37.30;16.17;;;;;;;;;;5109633;28;20573;-81
2022/01/27 10:17:06;;;;;;;36.78;14.88;;;;;;;;;;5108921;28;20564;-79
2022/01/27 10:19:35;;;;;;;43.67;15.48;;;;;;;;;;5091500;28;20080;-78
2022/01/27 10:22:15;;;;;;;35.28;14.55;;;;;;;;;;5092051;28;20048;-78
2022/01/27 10:24:41;;;;;;;38.35;15.85;;;;;;;;;;5109291;27;20555;-80
2022/01/27 10:27:32;;;;;;;47.63;16.05;;;;;;;;;;5092206;28;20109;-78
2022/01/27 10:32:38;;;;;;;40.97;15.48;;;;;;;;;;5110149;28;20113;-82
2022/01/27 10:35:05;;;;;;;41.50;15.45;;;;;;;;;;5090728;28;20052;-79
2022/01/27 10:37:51;;;;;;;37.58;14.60;;;;;;;;;;5092063;28;20451;-78
2022/01/27 10:40:21;;;;;;;43.35;14.80;;;;;;;;;;5091320;28;20055;-81
2022/01/27 10:43:07;;;;;;;47.35;15.27;;;;;;;;;;5108927;28;20048;-79
2022/01/27 10:45:34;;;;;;;41.00;14.93;;;;;;;;;;5091863;28;20101;-80
2022/01/27 10:48:24;;;;;;;34.90;13.50;;;;;;;;;;5083722;28;20143;-79
2022/01/27 10:50:59;;;;;;;36.97;13.80;;;;;;;;;;5081582;28;20091;-80
2022/01/27 10:53:41;;;;;;;40.13;14.07;;;;;;;;;;5088826;28;20056;-78
2022/01/27 10:56:08;;;;;;;35.55;13.55;;;;;;;;;;5089880;28;20515;-78
2022/01/27 10:58:34;;;;;;;35.10;13.85;;;;;;;;;;5103949;27;20060;-78
2022/01/27 11:01:01;;;;;;;41.33;14.43;;;;;;;;;;5089434;28;20076;-78
2022/01/27 11:03:27;;;;;;;34.22;13.10;;;;;;;;;;5089345;28;20611;-82
2022/01/27 11:05:56;;;;;;;38.35;13.20;;;;;;;;;;5089047;28;20053;-79
2022/01/27 11:08:24;;;;;;;34.35;13.30;;;;;;;;;;5071558;28;20584;-80
2022/01/27 11:10:51;;;;;;;42.30;13.63;;;;;;;;;;5073225;28;20056;-79
2022/01/27 11:13:19;;;;;;;34.70;12.82;;;;;;;;;;5104246;28;20062;-79
2022/01/27 11:15:46;;;;;;;30.83;12.40;;;;;;;;;;5085462;28;20048;-79
2022/01/27 11:18:13;;;;;;;33.83;12.57;;;;;;;;;;5093884;28;20048;-79
2022/01/27 11:20:55;;;;;;;37.00;12.60;;;;;;;;;;5112912;28;20121;-79
2022/01/27 11:26:06;;;;;;;44.80;15.75;;;;;;;;;;5103714;27;20060;-79
2022/01/27 11:28:33;;;;;;;43.80;17.50;;;;;;;;;;5094309;28;20044;-79
2022/01/27 11:31:15;;;;;;;42.88;16.02;;;;;;;;;;5094884;28;20079;-80
2022/01/27 11:33:43;;;;;;;35.38;13.98;;;;;;;;;;5112369;28;20056;-79
2022/01/27 11:36:11;;;;;;;33.70;12.30;;;;;;;;;;5097874;28;20110;-80
2022/01/27 11:38:39;;;;;;;34.97;12.32;;;;;;;;;;5092648;28;20049;-79
2022/01/27 11:41:05;;;;;;;35.65;11.95;;;;;;;;;;5091925;28;20064;-79
2022/01/27 11:43:34;;;;;;;33.10;12.45;;;;;;;;;;5077719;28;20121;-79
2022/01/27 11:46:14;;;;;;;31.10;11.50;;;;;;;;;;5093898;28;20564;-79
2022/01/27 11:48:41;;;;;;;32.42;10.23;;;;;;;;;;5112522;28;20060;-79
2022/01/27 11:51:13;;;;;;;35.97;12.02;;;;;;;;;;5094828;28;20544;-79
2022/01/27 11:53:48;;;;;;;35.03;11.75;;;;;;;;;;5107922;28;20057;-80
2022/01/27 11:56:26;;;;;;;46.60;14.18;;;;;;;;;;5091686;27;20048;-79
2022/01/27 11:58:53;;;;;;;33.08;12.20;;;;;;;;;;5095854;28;20052;-79
2022/01/27 12:01:27;;;;;;;37.97;11.20;;;;;;;;;;5091676;28;20052;-80
2022/01/27 12:04:06;;;;;;;30.63;9.60;;;;;;;;;;5085894;28;20037;-79
2022/01/27 12:06:37;;;;;;;28.83;9.77;;;;;;;;;;5108398;28;20110;-79
2022/01/27 12:09:19;;;;;;;30.70;10.52;;;;;;;;;;5094527;28;20052;-79
2022/01/27 12:11:51;;;;;;;25.02;8.90;;;;;;;;;;5093703;28;20052;-79
2022/01/27 12:14:22;;;;;;;30.55;8.77;;;;;;;;;;5111411;28;20056;-79
2022/01/27 12:17:08;;;;;;;27.63;9.10;;;;;;;;;;5092406;28;20435;-79
2022/01/27 12:19:54;;;;;;;21.77;8.20;;;;;;;;;;5093608;28;20051;-79
2022/01/27 12:22:26;;;;;;;29.77;9.23;;;;;;;;;;5093139;28;20078;-79
2022/01/27 12:24:55;;;;;;;26.92;8.60;;;;;;;;;;5112376;27;20052;-79
2022/01/27 12:27:23;;;;;;;20.52;7.25;;;;;;;;;;5110767;28;20518;-79
2022/01/27 12:30:10;;;;;;;17.75;7.15;;;;;;;;;;5112597;28;20143;-79
2022/01/27 12:32:36;;;;;;;19.48;6.40;;;;;;;;;;5105435;28;20044;-79
2022/01/27 12:35:07;;;;;;;21.90;7.80;;;;;;;;;;5091515;28;20591;-79
2022/01/27 12:37:38;;;;;;;21.73;7.05;;;;;;;;;;5108855;27;20522;-79
2022/01/27 12:40:07;;;;;;;17.33;6.25;;;;;;;;;;5111899;28;20568;-79
2022/01/27 12:42:36;;;;;;;23.20;7.72;;;;;;;;;;5111488;28;20048;-79
2022/01/27 12:45:05;;;;;;;26.60;7.20;;;;;;;;;;5112331;28;20062;-79
2022/01/27 12:47:32;;;;;;;16.75;5.75;;;;;;;;;;5111134;28;20110;-79
2022/01/27 12:50:12;;;;;;;13.95;5.85;;;;;;;;;;5103943;28;20537;-79
2022/01/27 12:52:41;;;;;;;25.13;5.78;;;;;;;;;;5073357;28;20531;-79
2022/01/27 12:55:15;;;;;;;17.85;5.63;;;;;;;;;;5090783;28;20430;-79
2022/01/27 12:57:53;;;;;;;16.38;4.40;;;;;;;;;;5093247;28;20056;-79
2022/01/27 13:00:19;;;;;;;24.10;5.38;;;;;;;;;;5111903;28;20052;-79
2022/01/27 13:02:46;;;;;;;11.65;4.50;;;;;;;;;;5093205;28;20052;-79
2022/01/27 13:05:12;;;;;;;17.65;6.22;;;;;;;;;;5111807;28;20098;-79
2022/01/27 13:07:41;;;;;;;16.35;5.07;;;;;;;;;;5080486;28;20083;-79
2022/01/27 13:10:11;;;;;;;22.83;5.28;;;;;;;;;;5100185;28;20075;-80
2022/01/27 13:12:53;;;;;;;22.70;4.78;;;;;;;;;;5106802;28;20062;-80
2022/01/27 13:15:22;;;;;;;13.95;5.22;;;;;;;;;;5091750;28;20044;-79
2022/01/27 13:18:03;;;;;;;14.02;4.28;;;;;;;;;;5111877;27;20059;-80
2022/01/27 13:20:35;;;;;;;14.50;4.88;;;;;;;;;;5093543;28;20052;-79
2022/01/27 13:23:47;;;;;;;15.05;4.50;;;;;;;;;;5111148;27;20090;-79
2022/01/27 13:25:57;;;;;;;13.75;4.22;;;;;;;;;;5081434;28;20531;-80
2022/01/27 13:28:25;;;;;;;10.65;3.80;;;;;;;;;;5080193;28;20055;-80
2022/01/27 13:30:53;;;;;;;11.68;3.55;;;;;;;;;;5093686;28;20048;-80
2022/01/27 13:33:21;;;;;;;16.65;4.65;;;;;;;;;;5091924;28;20087;-80
2022/01/27 13:35:49;;;;;;;11.55;3.78;;;;;;;;;;5094321;28;20056;-80
2022/01/27 13:43:41;;;;;;;11.85;3.90;;;;;;;;;;5094832;28;20105;-80
2022/01/27 13:46:08;;;;;;;12.02;4.35;;;;;;;;;;5076533;28;20061;-80
2022/01/27 13:48:42;;;;;;;13.88;3.88;;;;;;;;;;5076559;28;20596;-80
2022/01/27 13:51:16;;;;;;;13.05;3.40;;;;;;;;;;5111396;28;20048;-80
2022/01/27 13:53:57;;;;;;;13.35;3.25;;;;;;;;;;5114914;28;20048;-80
2022/01/27 13:56:24;;;;;;;9.15;3.13;;;;;;;;;;5114935;27;20503;-80
2022/01/27 13:59:15;;;;;;;9.55;3.35;;;;;;;;;;5098519;28;20408;-80
2022/01/27 14:01:41;;;;;;;12.77;3.70;;;;;;;;;;5098034;28;20125;-80
2022/01/27 14:04:09;;;;;;;15.73;3.42;;;;;;;;;;5114225;28;20048;-80
2022/01/27 14:06:49;;;;;;;14.88;3.42;;;;;;;;;;5095831;28;20051;-80
2022/01/27 14:09:16;;;;;;;12.63;3.50;;;;;;;;;;5093709;28;20439;-80
2022/01/27 14:11:43;;;;;;;16.40;3.63;;;;;;;;;;5095921;28;20052;-80
2022/01/27 14:14:09;;;;;;;13.07;3.38;;;;;;;;;;5112838;28;20056;-80
2022/01/27 14:16:37;;;;;;;9.40;2.83;;;;;;;;;;5110642;28;20059;-80
2022/01/27 14:19:14;;;;;;;9.70;3.47;;;;;;;;;;5094373;28;20604;-80
2022/01/27 14:21:44;;;;;;;9.95;3.17;;;;;;;;;;5113785;28;20048;-80
2022/01/27 14:24:36;;;;;;;9.48;2.38;;;;;;;;;;5097828;28;20517;-80
2022/01/27 14:27:04;;;;;;;10.25;2.70;;;;;;;;;;5113789;27;20131;-80
2022/01/27 14:29:32;;;;;;;9.90;3.10;;;;;;;;;;5096500;28;20044;-80
2022/01/27 14:31:59;;;;;;;13.13;3.13;;;;;;;;;;5094762;28;20090;-80
2022/01/27 14:34:29;;;;;;;13.55;2.70;;;;;;;;;;5095800;28;20052;-80
2022/01/27 14:36:55;;;;;;;14.93;2.88;;;;;;;;;;5095296;28;20079;-80
2022/01/27 14:39:21;;;;;;;11.15;2.95;;;;;;;;;;5113285;28;20052;-80
2022/01/27 14:41:48;;;;;;;9.68;2.67;;;;;;;;;;5095018;28;20495;-80
2022/01/27 14:44:14;;;;;;;10.45;2.83;;;;;;;;;;5094820;27;20236;-80
2022/01/27 14:46:44;;;;;;;15.32;2.60;;;;;;;;;;5095232;28;20075;-80
2022/01/27 14:49:12;;;;;;;14.77;2.80;;;;;;;;;;5086245;28;20052;-80
2022/01/27 14:51:39;;;;;;;16.30;3.22;;;;;;;;;;5091728;28;20106;-80
2022/01/27 14:54:06;;;;;;;10.50;3.28;;;;;;;;;;5096429;28;20051;-80
2022/01/27 14:56:33;;;;;;;11.77;2.70;;;;;;;;;;5112965;27;20127;-80
2022/01/27 14:58:59;;;;;;;13.93;2.50;;;;;;;;;;5113759;28;20510;-80
2022/01/27 15:01:26;;;;;;;14.38;2.63;;;;;;;;;;5094747;28;20101;-81
2022/01/27 15:03:53;;;;;;;11.00;2.20;;;;;;;;;;5095249;28;20056;-81
2022/01/27 15:06:19;;;;;;;10.95;2.28;;;;;;;;;;5109199;27;20052;-80
2022/01/27 15:08:46;;;;;;;12.55;2.20;;;;;;;;;;5112039;28;20056;-81
2022/01/27 15:11:12;;;;;;;10.40;2.30;;;;;;;;;;5093620;28;20052;-81
2022/01/27 15:13:44;;;;;;;19.10;2.92;;;;;;;;;;5112913;28;20518;-81
2022/01/27 15:19:06;;;;;;;13.93;2.17;;;;;;;;;;5111480;28;20507;-80
2022/01/27 15:21:34;;;;;;;14.07;2.42;;;;;;;;;;5094025;28;20584;-80
2022/01/27 15:24:03;;;;;;;12.63;1.90;;;;;;;;;;5090652;28;20175;-80
2022/01/27 15:26:31;;;;;;;12.32;1.83;;;;;;;;;;5112641;28;20542;-80
2022/01/27 15:28:58;;;;;;;9.25;1.90;;;;;;;;;;5094237;28;20052;-80
2022/01/27 15:31:24;;;;;;;13.90;2.63;;;;;;;;;;5092768;28;20056;-80